Time;durP1;ratioP1;P1;durP2;ratioP2;P2;SDS_P1;SDS_P2;PMS_P1;PMS_P2;Temp;Humidity;BMP_temperature;BMP_pressure;BME280_temperature;BME280_humidity;BME280_pressure;Samples;Min_cycle;Max_cycle;Signal;HPM_P1;HPM_P2
2021/01/29 00:00:22;;;;;;;;;;;;;;;20.43;31.73;100221.78;5099735;28;823;-54
2021/01/29 00:02:48;;;;;;;;;;;;;;;21.01;30.47;100216.47;5100163;28;798;-56
2021/01/29 00:05:13;;;;;;;;;;;;;;;21.27;29.98;100213.03;5100144;28;854;-45
2021/01/29 00:07:40;;;;;;;;;;;;;;;20.35;31.66;100217.81;5099620;28;731;-45
2021/01/29 00:10:05;;;;;;;;;;;;;;;20.17;31.84;100207.75;5099998;28;1901;-55
2021/01/29 00:12:31;;;;;;;;;;;;;;;19.61;32.95;100207.81;5099702;28;1056;-57
2021/01/29 00:14:56;;;;;;;;;;;;;;;19.69;33.08;100205.50;5099272;28;967;-55
2021/01/29 00:17:22;;;;;;;;;;;;;;;20.59;31.50;100204.81;5099944;28;858;-44
2021/01/29 00:19:47;;;;;;;;;;;;;;;20.39;31.49;100204.19;5099785;28;782;-47
2021/01/29 00:22:12;;;;;;;;;;;;;;;20.10;32.15;100205.41;5099381;28;751;-44
2021/01/29 00:24:38;;;;;;;;;;;;;;;19.85;32.47;100203.25;5100306;28;806;-44
2021/01/29 00:27:03;;;;;;;;;;;;;;;20.02;32.21;100200.66;5099674;28;779;-44
2021/01/29 00:29:29;;;;;;;;;;;;;;;20.62;31.39;100199.50;5098444;28;1913;-44
2021/01/29 00:31:54;;;;;;;;;;;;;;;20.21;31.76;100199.69;5099916;28;754;-44
2021/01/29 00:34:20;;;;;;;;;;;;;;;20.09;31.99;100197.44;5099674;28;743;-44
2021/01/29 00:36:45;;;;;;;;;;;;;;;19.63;33.02;100189.03;5099164;28;811;-54
2021/01/29 00:39:11;;;;;;;;;;;;;;;20.08;32.38;100177.31;5099519;28;759;-43
2021/01/29 00:41:36;;;;;;;;;;;;;;;20.74;31.20;100182.34;5099223;28;791;-52
2021/01/29 00:44:02;;;;;;;;;;;;;;;20.26;31.92;100175.53;5098431;28;1009;-45
2021/01/29 00:46:28;;;;;;;;;;;;;;;20.12;32.31;100174.78;5099302;28;1241;-55
2021/01/29 00:48:53;;;;;;;;;;;;;;;19.48;33.32;100170.06;5081142;28;1976;-44
2021/01/29 00:51:19;;;;;;;;;;;;;;;20.27;31.82;100176.31;5099327;28;842;-54
2021/01/29 00:53:44;;;;;;;;;;;;;;;20.79;31.06;100173.94;5099704;28;867;-43
2021/01/29 00:56:19;;;;;;;;;;;;;;;20.04;32.19;100176.31;5080830;28;1218;-44
2021/01/29 00:59:00;;;;;;;;;;;;;;;19.62;33.22;100176.38;5061018;28;1213;-44
2021/01/29 01:01:51;;;;;;;;;;;;;;;19.50;33.28;100170.56;5040276;28;1238;-55
2021/01/29 01:04:17;;;;;;;;;;;;;;;20.37;31.58;100173.34;5061395;28;1264;-44
2021/01/29 01:06:43;;;;;;;;;;;;;;;20.68;31.16;100170.63;5058842;28;1238;-46
2021/01/29 01:09:27;;;;;;;;;;;;;;;20.04;32.17;100161.72;5078443;28;1906;-44
2021/01/29 01:11:52;;;;;;;;;;;;;;;19.59;33.04;100168.72;5078643;28;859;-50
2021/01/29 01:14:36;;;;;;;;;;;;;;;19.53;33.19;100164.47;5078231;28;989;-55
2021/01/29 01:17:08;;;;;;;;;;;;;;;20.45;31.71;100160.69;5078341;28;628;-52
2021/01/29 01:19:54;;;;;;;;;;;;;;;20.24;31.72;100154.88;5060487;28;1268;-54
2021/01/29 01:22:19;;;;;;;;;;;;;;;20.02;32.21;100155.66;5060305;28;1288;-46
2021/01/29 01:24:53;;;;;;;;;;;;;;;19.41;33.27;100161.41;5060590;28;1106;-44
2021/01/29 01:27:19;;;;;;;;;;;;;;;19.78;32.75;100152.03;5060438;28;1321;-44
2021/01/29 01:30:11;;;;;;;;;;;;;;;20.65;31.07;100149.13;5040050;28;2020;-55
2021/01/29 01:32:39;;;;;;;;;;;;;;;20.12;32.11;100155.44;5076855;28;1213;-54
2021/01/29 01:35:22;;;;;;;;;;;;;;;19.89;32.38;100151.84;5078337;28;826;-45
2021/01/29 01:37:48;;;;;;;;;;;;;;;19.46;33.38;100151.09;5060362;28;1246;-44
2021/01/29 01:40:21;;;;;;;;;;;;;;;20.37;31.66;100156.75;5060428;28;1398;-52
2021/01/29 01:42:47;;;;;;;;;;;;;;;20.79;30.73;100154.59;5079019;28;959;-54
2021/01/29 01:45:28;;;;;;;;;;;;;;;20.21;32.12;100148.03;5080294;28;1314;-49
2021/01/29 01:47:59;;;;;;;;;;;;;;;19.86;32.46;100142.22;5076664;28;1289;-55
2021/01/29 01:50:50;;;;;;;;;;;;;;;19.52;33.40;100139.91;5076111;28;1970;-49
2021/01/29 01:53:26;;;;;;;;;;;;;;;20.44;31.75;100143.31;5060308;28;1286;-55
2021/01/29 01:56:14;;;;;;;;;;;;;;;20.07;31.94;100142.56;5077748;28;799;-50
2021/01/29 01:59:07;;;;;;;;;;;;;;;19.88;32.60;100134.47;5068857;28;1174;-44
2021/01/29 02:01:53;;;;;;;;;;;;;;;19.32;33.69;100130.97;5076340;28;987;-51
2021/01/29 02:04:38;;;;;;;;;;;;;;;20.34;31.64;100132.53;5076278;28;725;-55
2021/01/29 02:07:33;;;;;;;;;;;;;;;20.66;30.95;100136.97;5076385;28;1016;-44
2021/01/29 02:10:16;;;;;;;;;;;;;;;19.99;32.43;100132.28;5077260;28;1969;-55
2021/01/29 02:12:43;;;;;;;;;;;;;;;19.67;32.82;100120.31;5076184;28;1024;-47
2021/01/29 02:15:17;;;;;;;;;;;;;;;19.74;32.70;100137.25;5076416;28;1263;-43
2021/01/29 02:17:48;;;;;;;;;;;;;;;20.51;31.33;100132.66;5076909;28;810;-44
2021/01/29 02:21:02;;;;;;;;;;;;;;;20.12;31.89;100136.13;5072123;28;1197;-44
2021/01/29 02:24:04;;;;;;;;;;;;;;;20.02;32.28;100142.72;5077079;28;640;-44
2021/01/29 02:26:58;;;;;;;;;;;;;;;19.51;33.26;100138.31;5076326;28;1156;-48
2021/01/29 02:29:26;;;;;;;;;;;;;;;20.42;31.51;100140.06;5075080;28;1993;-44
2021/01/29 02:31:58;;;;;;;;;;;;;;;20.93;30.60;100135.16;5076012;28;1300;-51
2021/01/29 02:35:00;;;;;;;;;;;;;;;20.10;32.10;100135.59;5075453;28;1511;-44
2021/01/29 02:37:48;;;;;;;;;;;;;;;19.55;32.93;100134.63;5046783;28;1074;-49
2021/01/29 02:40:33;;;;;;;;;;;;;;;19.84;32.56;100133.47;5056145;28;1117;-42
2021/01/29 02:43:03;;;;;;;;;;;;;;;20.58;31.44;100128.59;5055397;28;1249;-53
2021/01/29 02:46:10;;;;;;;;;;;;;;;20.06;32.02;100134.59;5034222;28;1012;-46
2021/01/29 02:48:47;;;;;;;;;;;;;;;19.97;32.27;100135.34;5059263;28;1344;-52
2021/01/29 02:51:34;;;;;;;;;;;;;;;19.52;33.04;100129.72;5076672;28;680;-53
2021/01/29 02:54:31;;;;;;;;;;;;;;;20.45;31.43;100130.31;5076600;28;1000;-44
2021/01/29 02:57:32;;;;;;;;;;;;;;;20.35;31.44;100140.50;5058360;28;1175;-53
2021/01/29 03:00:46;;;;;;;;;;;;;;;20.05;32.02;100136.56;5058997;28;1226;-54
2021/01/29 03:03:16;;;;;;;;;;;;;;;19.42;33.39;100127.16;5058862;28;1306;-43
2021/01/29 03:06:29;;;;;;;;;;;;;;;20.57;31.38;100136.09;5004314;28;1233;-44
2021/01/29 03:08:57;;;;;;;;;;;;;;;20.26;31.60;100131.34;5058822;28;1913;-47
2021/01/29 03:12:14;;;;;;;;;;;;;;;19.99;32.40;100124.81;4994711;28;1237;-53
2021/01/29 03:15:01;;;;;;;;;;;;;;;19.87;32.53;100124.56;5001037;28;738;-55
2021/01/29 03:17:47;;;;;;;;;;;;;;;20.63;31.18;100136.78;5081900;28;1048;-43
2021/01/29 03:20:42;;;;;;;;;;;;;;;20.00;32.04;100131.16;5096230;28;644;-53
2021/01/29 03:23:44;;;;;;;;;;;;;;;19.55;33.20;100126.34;5034449;28;1132;-45
2021/01/29 03:26:29;;;;;;;;;;;;;;;19.93;32.59;100133.53;5076260;28;1095;-44
2021/01/29 03:29:14;;;;;;;;;;;;;;;20.61;31.45;100131.56;5067824;28;1913;-45
2021/01/29 03:31:59;;;;;;;;;;;;;;;19.98;32.11;100130.66;5065538;28;618;-53
2021/01/29 03:35:02;;;;;;;;;;;;;;;19.80;32.73;100126.94;5064932;28;625;-43
2021/01/29 03:37:49;;;;;;;;;;;;;;;19.04;34.06;100124.66;5080566;28;633;-52
2021/01/29 03:40:40;;;;;;;;;;;;;;;20.13;32.03;100124.78;5069852;28;1097;-55
2021/01/29 03:43:40;;;;;;;;;;;;;;;20.82;30.73;100126.34;5065164;28;990;-50
2021/01/29 03:46:36;;;;;;;;;;;;;;;19.98;32.08;100122.38;5080101;28;937;-44
2021/01/29 03:49:24;;;;;;;;;;;;;;;19.39;33.37;100119.53;5079798;28;1901;-43
2021/01/29 03:52:26;;;;;;;;;;;;;;;19.68;32.61;100121.91;5065095;28;708;-43
2021/01/29 03:55:18;;;;;;;;;;;;;;;20.66;31.22;100114.88;5080035;28;657;-56
2021/01/29 03:58:13;;;;;;;;;;;;;;;20.00;32.08;100117.34;5088258;28;1178;-53
2021/01/29 04:01:08;;;;;;;;;;;;;;;19.81;32.57;100118.34;5064785;28;621;-54
2021/01/29 04:03:52;;;;;;;;;;;;;;;19.93;32.33;100111.47;5064498;28;625;-54
2021/01/29 04:06:38;;;;;;;;;;;;;;;20.65;31.09;100107.69;5079946;28;629;-53
2021/01/29 04:09:23;;;;;;;;;;;;;;;19.96;32.07;100114.41;5064540;28;1909;-52
2021/01/29 04:12:20;;;;;;;;;;;;;;;19.56;33.13;100105.09;5048566;28;1216;-57
2021/01/29 04:15:11;;;;;;;;;;;;;;;19.66;32.92;100107.63;5065260;28;946;-60
2021/01/29 04:17:39;;;;;;;;;;;;;;;20.47;31.26;100108.75;5079660;28;752;-57
2021/01/29 04:20:14;;;;;;;;;;;;;;;20.51;30.90;100087.66;5079591;28;746;-56
2021/01/29 04:22:39;;;;;;;;;;;;;;;20.03;31.79;100094.63;5061516;28;791;-56
2021/01/29 04:25:10;;;;;;;;;;;;;;;19.59;32.85;100096.22;5061750;28;772;-44
2021/01/29 04:27:37;;;;;;;;;;;;;;;19.96;32.10;100100.63;5061363;28;1001;-55
2021/01/29 04:30:02;;;;;;;;;;;;;;;20.64;30.94;100096.97;5061456;28;1914;-55
2021/01/29 04:32:30;;;;;;;;;;;;;;;20.03;32.05;100093.84;5079260;28;802;-51
2021/01/29 04:34:55;;;;;;;;;;;;;;;19.94;32.02;100096.53;5061159;28;760;-48
2021/01/29 04:37:22;;;;;;;;;;;;;;;19.52;33.04;100098.56;5061755;28;772;-44
2021/01/29 04:39:49;;;;;;;;;;;;;;;20.36;31.31;100091.63;5061484;28;800;-56
2021/01/29 04:42:23;;;;;;;;;;;;;;;20.57;31.16;100096.63;5061292;28;748;-47
2021/01/29 04:45:01;;;;;;;;;;;;;;;19.83;32.21;100088.50;5079424;28;970;-45
2021/01/29 04:47:32;;;;;;;;;;;;;;;19.53;33.00;100086.41;5078959;28;1108;-57
2021/01/29 04:50:05;;;;;;;;;;;;;;;19.80;32.55;100086.34;5078808;28;1997;-58
2021/01/29 04:52:43;;;;;;;;;;;;;;;20.59;31.07;100088.81;5079660;28;779;-57
2021/01/29 04:55:14;;;;;;;;;;;;;;;20.07;31.68;100095.66;5078697;28;939;-57
2021/01/29 04:57:46;;;;;;;;;;;;;;;19.98;31.82;100097.53;5088379;28;1139;-58
2021/01/29 05:00:22;;;;;;;;;;;;;;;19.56;32.86;100088.53;5080284;28;1150;-47
2021/01/29 05:03:19;;;;;;;;;;;;;;;20.57;31.12;100096.63;5098373;28;636;-47
2021/01/29 05:06:21;;;;;;;;;;;;;;;20.03;31.60;100097.41;5099093;28;597;-56
2021/01/29 05:09:11;;;;;;;;;;;;;;;19.68;32.28;100091.56;5099067;28;1973;-52
2021/01/29 05:11:58;;;;;;;;;;;;;;;19.82;32.13;100094.31;5080635;28;1918;-47
2021/01/29 05:14:30;;;;;;;;;;;;;;;20.59;30.76;100091.56;5080273;28;950;-57
2021/01/29 05:17:04;;;;;;;;;;;;;;;20.14;31.36;100090.50;5098905;28;751;-55
2021/01/29 05:19:43;;;;;;;;;;;;;;;19.98;31.87;100094.78;5098552;28;822;-57
2021/01/29 05:22:08;;;;;;;;;;;;;;;19.38;32.93;100101.38;5080747;28;751;-57
2021/01/29 05:24:53;;;;;;;;;;;;;;;20.31;31.31;100098.09;5098270;28;743;-55
2021/01/29 05:27:21;;;;;;;;;;;;;;;20.48;30.78;100094.63;5098533;28;787;-56
2021/01/29 05:30:22;;;;;;;;;;;;;;;19.87;31.99;100093.41;5098083;28;1978;-56
2021/01/29 05:32:57;;;;;;;;;;;;;;;19.43;32.86;100091.03;4996332;28;1193;-56
2021/01/29 05:35:54;;;;;;;;;;;;;;;19.89;32.17;100093.91;5066123;28;1012;-45
2021/01/29 05:38:29;;;;;;;;;;;;;;;20.70;30.55;100094.91;5042964;28;1226;-58
2021/01/29 05:40:57;;;;;;;;;;;;;;;20.11;31.59;100096.66;5098124;28;756;-54
2021/01/29 05:43:32;;;;;;;;;;;;;;;19.89;32.00;100093.91;5097805;28;973;-47
2021/01/29 05:46:06;;;;;;;;;;;;;;;19.91;31.96;100097.97;5080372;28;816;-57
2021/01/29 05:48:44;;;;;;;;;;;;;;;20.70;30.63;100092.94;5097914;28;1230;-56
2021/01/29 05:51:21;;;;;;;;;;;;;;;20.99;30.00;100094.38;5098127;28;1971;-60
2021/01/29 05:53:50;;;;;;;;;;;;;;;20.54;30.76;100094.47;5097988;28;780;-56
2021/01/29 05:56:16;;;;;;;;;;;;;;;20.00;31.93;100095.28;5097761;28;815;-60
2021/01/29 05:59:14;;;;;;;;;;;;;;;19.48;32.79;100090.09;5060983;28;1087;-55
2021/01/29 06:01:42;;;;;;;;;;;;;;;20.03;31.77;100089.13;5033020;28;1113;-59
2021/01/29 06:04:23;;;;;;;;;;;;;;;20.74;30.48;100091.19;5077543;28;768;-60
2021/01/29 06:06:50;;;;;;;;;;;;;;;20.26;31.19;100092.69;5077339;28;768;-59
2021/01/29 06:09:19;;;;;;;;;;;;;;;20.03;31.90;100089.13;5062787;28;1985;-50
2021/01/29 06:11:48;;;;;;;;;;;;;;;19.45;32.71;100086.03;5078921;28;855;-58
2021/01/29 06:14:13;;;;;;;;;;;;;;;20.30;31.31;100099.22;5096507;28;879;-54
2021/01/29 06:16:45;;;;;;;;;;;;;;;20.68;30.45;100095.25;5097281;28;732;-59
2021/01/29 06:19:22;;;;;;;;;;;;;;;20.07;31.72;100090.13;5097531;28;851;-59
2021/01/29 06:21:48;;;;;;;;;;;;;;;19.69;32.13;100095.97;5097479;28;871;-57
2021/01/29 06:24:25;;;;;;;;;;;;;;;19.84;32.22;100097.59;5097103;28;787;-45
2021/01/29 06:26:59;;;;;;;;;;;;;;;20.60;30.85;100093.22;5079174;28;790;-60
2021/01/29 06:29:28;;;;;;;;;;;;;;;19.98;31.91;100090.06;5096818;28;1980;-49
2021/01/29 06:32:12;;;;;;;;;;;;;;;19.91;31.74;100086.94;5096993;28;808;-48
2021/01/29 06:34:41;;;;;;;;;;;;;;;19.50;32.73;100085.09;5096981;28;771;-58
2021/01/29 06:37:10;;;;;;;;;;;;;;;20.47;31.11;100078.38;5079317;28;762;-52
2021/01/29 06:39:35;;;;;;;;;;;;;;;20.23;31.28;100075.94;5096704;28;834;-46
2021/01/29 06:42:12;;;;;;;;;;;;;;;20.06;31.72;100077.44;5096794;28;823;-58
2021/01/29 06:44:59;;;;;;;;;;;;;;;19.44;32.84;100073.34;5078616;28;930;-57
2021/01/29 06:47:28;;;;;;;;;;;;;;;20.18;31.66;100069.41;5078511;28;1174;-58
2021/01/29 06:50:06;;;;;;;;;;;;;;;20.78;30.56;100063.75;5096991;28;1914;-48
2021/01/29 06:52:50;;;;;;;;;;;;;;;20.08;31.74;100063.38;5096783;28;906;-59
2021/01/29 06:55:18;;;;;;;;;;;;;;;19.86;32.22;100066.94;5096405;28;787;-57
2021/01/29 06:57:59;;;;;;;;;;;;;;;19.65;32.68;100072.91;5085484;28;1078;-55
2021/01/29 07:00:57;;;;;;;;;;;;;;;20.53;31.01;100063.28;5076516;28;732;-59
2021/01/29 07:04:03;;;;;;;;;;;;;;;20.11;31.66;100069.06;5030934;28;1431;-46
2021/01/29 07:06:37;;;;;;;;;;;;;;;19.96;31.82;100077.72;4995254;28;1144;-60
2021/01/29 07:09:10;;;;;;;;;;;;;;;19.30;33.07;100073.38;4994466;28;1910;-56
2021/01/29 07:11:54;;;;;;;;;;;;;;;20.17;31.61;100078.84;5026649;28;1066;-58
2021/01/29 07:14:38;;;;;;;;;;;;;;;20.43;30.93;100074.63;5076553;28;923;-47
2021/01/29 07:17:10;;;;;;;;;;;;;;;19.89;31.87;100069.06;5075774;28;803;-59
2021/01/29 07:19:38;;;;;;;;;;;;;;;19.60;32.49;100071.09;5076714;28;799;-60
2021/01/29 07:22:10;;;;;;;;;;;;;;;19.77;32.25;100080.63;5075965;28;770;-47
2021/01/29 07:24:53;;;;;;;;;;;;;;;20.52;30.96;100076.28;5076309;28;821;-52
2021/01/29 07:27:37;;;;;;;;;;;;;;;20.28;31.21;100078.56;5058323;28;763;-49
2021/01/29 07:30:15;;;;;;;;;;;;;;;19.85;32.35;100068.84;5076504;28;1905;-56
2021/01/29 07:32:47;;;;;;;;;;;;;;;19.42;33.03;100075.63;5085796;28;820;-49
2021/01/29 07:35:24;;;;;;;;;;;;;;;20.11;31.72;100074.56;5077992;28;867;-58
2021/01/29 07:37:50;;;;;;;;;;;;;;;20.64;30.56;100069.34;5078095;28;860;-53
2021/01/29 07:40:47;;;;;;;;;;;;;;;20.02;31.98;100068.19;5096743;28;938;-45
2021/01/29 07:43:16;;;;;;;;;;;;;;;19.62;32.48;100068.81;5039790;28;1202;-60
2021/01/29 07:46:00;;;;;;;;;;;;;;;19.83;32.16;100060.09;5078149;28;831;-58
2021/01/29 07:48:44;;;;;;;;;;;;;;;20.60;30.91;100063.63;5096286;28;1031;-55
2021/01/29 07:51:14;;;;;;;;;;;;;;;20.00;31.82;100068.47;5096019;28;1980;-58
2021/01/29 07:53:39;;;;;;;;;;;;;;;19.92;32.09;100062.91;5061284;28;780;-46
2021/01/29 07:56:23;;;;;;;;;;;;;;;19.53;32.81;100061.59;5096337;28;835;-46
2021/01/29 07:59:07;;;;;;;;;;;;;;;20.40;31.27;100070.53;5076222;28;1118;-60
2021/01/29 08:01:37;;;;;;;;;;;;;;;20.68;30.83;100070.38;5075520;28;859;-56
2021/01/29 08:04:11;;;;;;;;;;;;;;;20.13;31.50;100072.31;5057907;28;835;-56
2021/01/29 08:06:52;;;;;;;;;;;;;;;19.75;32.12;100071.84;5076465;28;748;-56
2021/01/29 08:09:20;;;;;;;;;;;;;;;19.53;32.75;100070.69;5057741;28;1971;-45
2021/01/29 08:11:47;;;;;;;;;;;;;;;20.32;31.29;100074.84;5057923;28;819;-45
2021/01/29 08:14:33;;;;;;;;;;;;;;;20.58;30.73;100070.59;5076009;28;985;-59
2021/01/29 08:17:17;;;;;;;;;;;;;;;20.06;31.77;100071.94;5079292;28;855;-60
2021/01/29 08:19:43;;;;;;;;;;;;;;;19.74;32.44;100064.69;5079368;28;748;-51
2021/01/29 08:22:47;;;;;;;;;;;;;;;19.50;32.68;100071.28;5079006;28;843;-61
2021/01/29 08:25:12;;;;;;;;;;;;;;;20.48;31.02;100067.00;4998278;28;1304;-59
2021/01/29 08:27:40;;;;;;;;;;;;;;;20.37;31.04;100065.66;4997701;28;976;-58
2021/01/29 08:30:32;;;;;;;;;;;;;;;19.88;31.78;100062.75;5047089;28;1976;-45
2021/01/29 08:33:23;;;;;;;;;;;;;;;19.45;32.91;100063.16;5063514;28;1325;-60
2021/01/29 08:35:51;;;;;;;;;;;;;;;20.08;31.57;100057.84;5061076;28;792;-56
2021/01/29 08:38:23;;;;;;;;;;;;;;;20.74;30.47;100066.31;5079604;28;764;-57
2021/01/29 08:40:55;;;;;;;;;;;;;;;20.18;31.50;100063.91;5078988;28;783;-55
2021/01/29 08:43:23;;;;;;;;;;;;;;;19.99;31.89;100055.84;5079022;28;1161;-56
2021/01/29 08:45:58;;;;;;;;;;;;;;;19.51;32.68;100063.84;5078768;28;743;-56
2021/01/29 08:48:24;;;;;;;;;;;;;;;19.95;32.08;100059.50;5057746;28;1277;-49
2021/01/29 08:50:56;;;;;;;;;;;;;;;20.63;30.75;100065.75;5059101;28;1976;-61
2021/01/29 08:53:40;;;;;;;;;;;;;;;20.26;31.24;100069.78;5057233;28;843;-58
2021/01/29 08:56:24;;;;;;;;;;;;;;;20.00;31.94;100062.16;5058825;28;791;-49
2021/01/29 08:58:56;;;;;;;;;;;;;;;19.36;33.05;100054.78;5077967;28;1238;-58
2021/01/29 09:01:40;;;;;;;;;;;;;;;20.00;31.93;100054.69;5078238;28;762;-59
2021/01/29 09:04:25;;;;;;;;;;;;;;;20.66;30.63;100050.50;5078355;28;794;-58
2021/01/29 09:06:51;;;;;;;;;;;;;;;19.94;31.98;100057.91;5077872;28;1062;-58
2021/01/29 09:09:30;;;;;;;;;;;;;;;19.90;31.94;100052.19;5077233;28;2008;-57
2021/01/29 09:11:57;;;;;;;;;;;;;;;19.31;33.27;100038.38;5077113;28;863;-52
2021/01/29 09:14:31;;;;;;;;;;;;;;;20.21;31.63;100034.03;5077714;28;982;-59
2021/01/29 09:17:16;;;;;;;;;;;;;;;20.75;30.43;100036.72;5077206;28;756;-57
2021/01/29 09:19:43;;;;;;;;;;;;;;;20.11;31.62;100027.66;5078222;28;1519;-57
2021/01/29 09:22:12;;;;;;;;;;;;;;;20.02;31.69;100029.56;5076060;28;1075;-57
2021/01/29 09:24:57;;;;;;;;;;;;;;;19.26;33.06;100022.75;5070213;28;1284;-56
2021/01/29 09:27:44;;;;;;;;;;;;;;;20.14;31.74;100009.66;5072883;28;1097;-56
2021/01/29 09:30:13;;;;;;;;;;;;;;;20.84;30.72;100002.47;5058384;28;1905;-56
2021/01/29 09:32:57;;;;;;;;;;;;;;;20.35;31.35;100012.69;5075270;28;1304;-56
2021/01/29 09:35:38;;;;;;;;;;;;;;;19.99;31.96;100005.34;5078336;28;748;-56
2021/01/29 09:38:05;;;;;;;;;;;;;;;19.55;32.74;99995.94;5076619;28;760;-50
2021/01/29 09:40:33;;;;;;;;;;;;;;;19.80;32.21;99977.97;5077062;28;814;-55
2021/01/29 09:43:08;;;;;;;;;;;;;;;20.58;30.83;99976.69;5076168;28;1002;-56
2021/01/29 09:45:38;;;;;;;;;;;;;;;20.27;31.54;99983.06;5077523;28;835;-56
2021/01/29 09:48:05;;;;;;;;;;;;;;;20.06;32.01;99980.84;5076727;28;1146;-44
2021/01/29 09:50:30;;;;;;;;;;;;;;;19.60;32.67;99973.72;5076506;28;1975;-47
2021/01/29 09:53:05;;;;;;;;;;;;;;;19.76;32.48;99968.66;5076146;28;863;-57
2021/01/29 09:55:46;;;;;;;;;;;;;;;20.49;31.25;99983.00;5077803;28;963;-61
2021/01/29 09:58:31;;;;;;;;;;;;;;;20.15;31.42;99975.41;5062937;28;1115;-52
2021/01/29 10:01:00;;;;;;;;;;;;;;;20.04;31.81;99972.09;5057837;28;767;-49
2021/01/29 10:03:31;;;;;;;;;;;;;;;19.55;32.58;99968.34;5057444;28;745;-46
2021/01/29 10:05:58;;;;;;;;;;;;;;;19.98;31.87;99959.56;5057237;28;831;-58
2021/01/29 10:08:29;;;;;;;;;;;;;;;20.65;30.80;99944.72;5056539;28;980;-58
2021/01/29 10:11:13;;;;;;;;;;;;;;;20.50;30.86;99943.22;5056755;28;1906;-55
2021/01/29 10:14:00;;;;;;;;;;;;;;;20.10;31.75;99943.22;5057140;28;986;-58
2021/01/29 10:16:40;;;;;;;;;;;;;;;19.64;32.75;99934.19;5056500;28;718;-54
2021/01/29 10:19:08;;;;;;;;;;;;;;;19.59;32.97;99930.75;5056019;28;819;-59
2021/01/29 10:21:49;;;;;;;;;;;;;;;20.51;31.15;99927.47;5061808;28;1225;-50
2021/01/29 10:24:20;;;;;;;;;;;;;;;20.50;30.99;99932.16;5075986;28;800;-45
2021/01/29 10:26:50;;;;;;;;;;;;;;;20.20;31.60;99911.75;5075795;28;771;-45
2021/01/29 10:29:18;;;;;;;;;;;;;;;19.67;32.61;99922.53;5074762;28;1925;-56
2021/01/29 10:31:52;;;;;;;;;;;;;;;19.04;33.63;99915.25;5075400;28;719;-51
2021/01/29 10:34:28;;;;;;;;;;;;;;;20.09;31.81;99900.22;5060439;28;1510;-57
2021/01/29 10:37:01;;;;;;;;;;;;;;;20.70;30.69;99904.31;5055543;28;756;-49
2021/01/29 10:39:26;;;;;;;;;;;;;;;20.17;31.50;99890.31;5055526;28;740;-57
2021/01/29 10:41:56;;;;;;;;;;;;;;;20.24;31.46;99884.34;5055726;28;736;-58
2021/01/29 10:44:27;;;;;;;;;;;;;;;19.68;32.34;99890.22;5055276;28;1021;-57
2021/01/29 10:46:53;;;;;;;;;;;;;;;19.81;32.47;99892.13;5061576;28;1146;-58
2021/01/29 10:49:24;;;;;;;;;;;;;;;20.55;31.08;99883.44;5076995;28;1999;-58
2021/01/29 10:51:58;;;;;;;;;;;;;;;20.46;30.98;99886.19;5058844;28;751;-58
2021/01/29 10:54:24;;;;;;;;;;;;;;;20.07;31.94;99880.38;5076943;28;806;-56
2021/01/29 10:57:08;;;;;;;;;;;;;;;19.67;32.42;99883.91;5062151;28;1135;-58
2021/01/29 10:59:39;;;;;;;;;;;;;;;19.43;33.09;99884.28;5077658;28;994;-58
2021/01/29 11:02:06;;;;;;;;;;;;;;;20.40;31.45;99885.53;5095867;28;795;-50
2021/01/29 11:04:32;;;;;;;;;;;;;;;20.69;30.67;99889.66;5078865;28;803;-58
2021/01/29 11:07:18;;;;;;;;;;;;;;;20.19;31.47;99882.53;5096056;28;736;-58
2021/01/29 11:09:44;;;;;;;;;;;;;;;19.90;32.00;99875.59;5096716;28;1910;-57
2021/01/29 11:12:12;;;;;;;;;;;;;;;19.31;33.26;99871.03;5063697;28;787;-57
2021/01/29 11:14:40;;;;;;;;;;;;;;;20.24;31.81;99873.31;5079267;28;951;-45
2021/01/29 11:17:38;;;;;;;;;;;;;;;20.64;30.74;99881.50;5078592;28;768;-53
2021/01/29 11:20:24;;;;;;;;;;;;;;;20.02;31.75;99869.50;5023587;28;1151;-47
2021/01/29 11:23:01;;;;;;;;;;;;;;;19.73;32.32;99876.31;5083475;28;1325;-43
2021/01/29 11:25:38;;;;;;;;;;;;;;;19.88;32.17;99877.06;5096546;28;827;-48
2021/01/29 11:28:17;;;;;;;;;;;;;;;20.51;31.03;99875.81;5095669;28;1020;-45
2021/01/29 11:30:43;;;;;;;;;;;;;;;20.30;31.48;99856.28;5077538;28;1910;-59
2021/01/29 11:33:08;;;;;;;;;;;;;;;20.05;31.95;99859.75;5077769;28;832;-59
2021/01/29 11:35:50;;;;;;;;;;;;;;;19.66;32.59;99854.69;5058281;28;819;-51
2021/01/29 11:38:51;;;;;;;;;;;;;;;19.68;32.66;99862.66;5076088;28;997;-62
2021/01/29 11:41:28;;;;;;;;;;;;;;;20.60;30.87;99858.44;4994527;28;1349;-59
2021/01/29 11:44:14;;;;;;;;;;;;;;;20.38;31.13;99857.41;5065145;28;1157;-56
2021/01/29 11:46:40;;;;;;;;;;;;;;;20.16;31.56;99861.91;5058499;28;1146;-59
2021/01/29 11:49:09;;;;;;;;;;;;;;;19.79;32.17;99858.50;5058160;28;883;-59
2021/01/29 11:51:45;;;;;;;;;;;;;;;19.67;32.49;99852.78;5078992;28;1937;-59
2021/01/29 11:54:16;;;;;;;;;;;;;;;20.55;31.15;99853.84;5080441;28;790;-48
2021/01/29 11:57:01;;;;;;;;;;;;;;;21.00;30.15;99850.03;5063619;28;1182;-63
2021/01/29 11:59:45;;;;;;;;;;;;;;;20.69;30.63;99839.94;5099503;28;1001;-61
2021/01/29 12:02:19;;;;;;;;;;;;;;;20.32;31.41;99837.41;5096297;28;874;-58
2021/01/29 12:04:51;;;;;;;;;;;;;;;20.09;31.71;99839.50;5079112;28;894;-47
2021/01/29 12:07:30;;;;;;;;;;;;;;;19.41;33.22;99834.13;5061948;28;744;-59
2021/01/29 12:09:57;;;;;;;;;;;;;;;20.26;31.74;99832.38;5079306;28;1964;-57
2021/01/29 12:12:24;;;;;;;;;;;;;;;20.65;30.73;99823.19;5061639;28;774;-60
2021/01/29 12:14:49;;;;;;;;;;;;;;;20.11;31.71;99819.84;5079576;28;1005;-59
2021/01/29 12:17:16;;;;;;;;;;;;;;;19.86;32.19;99807.59;5079402;28;779;-56
2021/01/29 12:19:42;;;;;;;;;;;;;;;19.48;32.86;99814.38;5060883;28;1386;-60
2021/01/29 12:22:24;;;;;;;;;;;;;;;19.92;32.29;99818.19;5061902;28;783;-60
2021/01/29 12:25:28;;;;;;;;;;;;;;;20.68;30.66;99819.00;5061232;28;775;-57
2021/01/29 12:28:12;;;;;;;;;;;;;;;20.14;31.71;99820.00;4997354;28;1257;-52
2021/01/29 12:30:41;;;;;;;;;;;;;;;19.99;31.76;99812.16;4997845;28;1910;-56
2021/01/29 12:33:09;;;;;;;;;;;;;;;19.39;33.06;99808.84;5047210;28;1065;-57
2021/01/29 12:35:40;;;;;;;;;;;;;;;20.10;31.75;99807.97;5061543;28;780;-50
2021/01/29 12:38:09;;;;;;;;;;;;;;;20.71;30.66;99803.72;5079242;28;747;-53
2021/01/29 12:41:01;;;;;;;;;;;;;;;20.14;31.71;99811.72;5079334;28;751;-51
2021/01/29 12:43:27;;;;;;;;;;;;;;;20.07;31.77;99805.88;5040068;28;985;-56
2021/01/29 12:45:58;;;;;;;;;;;;;;;19.54;32.74;99801.28;5079234;28;764;-57
2021/01/29 12:48:39;;;;;;;;;;;;;;;20.00;31.93;99794.50;5078991;28;1055;-52
2021/01/29 12:51:14;;;;;;;;;;;;;;;20.72;30.67;99789.59;5060619;28;2035;-46
2021/01/29 12:53:39;;;;;;;;;;;;;;;20.09;31.72;99778.78;5078992;28;752;-57
2021/01/29 12:56:05;;;;;;;;;;;;;;;20.01;31.92;99771.28;5078765;28;776;-47
2021/01/29 12:58:35;;;;;;;;;;;;;;;19.53;32.86;99772.06;5095503;28;1135;-56
2021/01/29 13:01:01;;;;;;;;;;;;;;;19.43;33.06;99774.00;5080667;28;783;-58
2021/01/29 13:03:31;;;;;;;;;;;;;;;20.37;31.41;99772.16;5079989;28;756;-51
2021/01/29 13:06:16;;;;;;;;;;;;;;;20.37;31.11;99772.97;5080808;28;779;-56
2021/01/29 13:08:45;;;;;;;;;;;;;;;20.16;31.84;99765.31;5099022;28;806;-53
2021/01/29 13:11:16;;;;;;;;;;;;;;;19.58;32.60;99774.69;5079589;28;1914;-56
2021/01/29 13:13:52;;;;;;;;;;;;;;;19.70;32.60;99760.28;5098258;28;1005;-55
2021/01/29 13:16:24;;;;;;;;;;;;;;;20.52;31.18;99750.41;5098977;28;855;-56
2021/01/29 13:18:50;;;;;;;;;;;;;;;20.17;31.48;99733.81;5079742;28;837;-45
2021/01/29 13:21:26;;;;;;;;;;;;;;;20.06;31.75;99740.75;5098784;28;795;-48
2021/01/29 13:23:51;;;;;;;;;;;;;;;19.63;32.58;99749.75;5081113;28;791;-47
2021/01/29 13:26:32;;;;;;;;;;;;;;;19.59;32.56;99749.56;5079747;28;916;-57
2021/01/29 13:29:05;;;;;;;;;;;;;;;20.49;31.42;99739.19;5080053;28;1989;-57
2021/01/29 13:31:31;;;;;;;;;;;;;;;20.45;31.40;99733.47;5098740;28;1993;-55
2021/01/29 13:33:57;;;;;;;;;;;;;;;20.20;31.72;99740.63;5098112;28;768;-57
2021/01/29 13:36:28;;;;;;;;;;;;;;;19.90;32.45;99737.66;5079959;28;942;-56
2021/01/29 13:38:53;;;;;;;;;;;;;;;19.48;33.49;99731.69;5080370;28;736;-60
2021/01/29 13:41:23;;;;;;;;;;;;;;;20.43;31.59;99733.00;5097784;28;783;-57
2021/01/29 13:43:48;;;;;;;;;;;;;;;20.58;31.15;99728.13;5079383;28;1045;-58